Impacts METAR Board
IDs:

KTPA - Tampa Intl Arpt, FL, US

Updated at: 1100 UTC 07 Dec 2022
Potential Impact None Slight Moderate High
Time 06/23Z 07/00Z 07/01Z 07/02Z 07/03Z 07/04Z 07/05Z 07/06Z 07/07Z 07/08Z 07/09Z 07/10Z 07/11Z
Temp75 73 71 71 71 70 70 69 69 68 67 67 67
Dewpt64 64 64 64 64 63 63 63 63 63 63 63 63
Altim30.19 30.20 30.21 30.23 30.24 30.24 30.25 30.24 30.23 30.23 30.24 30.24 30.25
VIS10 10 10 10 10 10 10 10 10 10 10 10 10
CIG55 -- -- -- -- -- -- -- -- -- -- -- --
CoverBKNFEWFEWCLRCLRCLRCLRCLRCLRCLRCLRCLRCLR
FltCatVFRVFRVFRVFRVFRVFRVFRVFRVFRVFRVFRVFRVFR
WX--------------------------
WDir300330350302030405006040050
WSpd4 5 4 4 4 4 3 4 0 3 4 0 3
WGst-- -- -- -- -- -- -- -- -- -- -- -- --
Raw hourly METARs
KTPA 062253Z 30004KT 10SM SCT036 BKN055 24/18 A3019 RMK AO2 SLP222 T02390178
KTPA 062353Z 33005KT 10SM FEW034 FEW060 23/18 A3020 RMK AO2 SLP227 T02280178 10272 20228 53013
KTPA 070053Z 35004KT 10SM FEW055 22/18 A3021 RMK AO2 SLP231 T02170178
KTPA 070153Z 03004KT 10SM CLR 22/18 A3023 RMK AO2 SLP235 T02170178
KTPA 070253Z 02004KT 10SM CLR 22/18 A3024 RMK AO2 SLP239 T02170178 53012
KTPA 070353Z 03004KT 10SM CLR 21/17 A3024 RMK AO2 SLP241 T02110172
KTPA 070453Z 04003KT 10SM CLR 21/17 A3025 RMK AO2 SLP241 T02110172 402720189
KTPA 070553Z 05004KT 10SM CLR 21/17 A3024 RMK AO2 SLP239 T02060172 10228 20206 50000
KTPA 070653Z 00000KT 10SM CLR 21/17 A3023 RMK AO2 SLP237 T02060172
KTPA 070753Z 06003KT 10SM CLR 20/17 A3023 RMK AO2 SLP236 T02000172
KTPA 070853Z 04004KT 10SM CLR 19/17 A3024 RMK AO2 SLP239 T01940172 55000
KTPA 070953Z 00000KT 10SM CLR 19/17 A3024 RMK AO2 SLP239 T01940172
KTPA 071053Z 05003KT 10SM CLR 19/17 A3025 RMK AO2 SLP243 T01940172



Page loaded:  11:13 UTC  |   03:13 AM Pacific  |   04:13 AM Mountain  |   05:13 AM Central  |   06:13 AM Eastern

 

ADVISORIES

FORECASTS

FORECASTS

OBSERVATIONS

USER TOOLS

ABOUT US